71NE weather

Neben Airport
Oconto, Nebraska, United States

Public forecast

Using degrees Fahrenheit for public forecast. Weather courtesy of forecast.io.

Closest aviation weather report (METAR) to Neben Airport

Closest report is Jim Kelly Field, 14.9 nm (27.6 km) S. Retrieved 2019/10/22 07:35 UTC (0 seconds ago):

KLXN 220735Z AUTO 29012KT 10SM CLR 03/M03 A3000 RMK AO2 T00311030

Closest aviation forecast (TAF) to Neben Airport

Closest forecast is North Platte Regional Airport Lee Bird Field, 39.0 nm (72.3 km) W. Retrieved 2019/10/22 06:22 UTC (51 minutes ago):

TAF KLBF 220520Z 2206/2306 33007KT P6SM SKC FM220800 31008KT P6SM SKC WS020/32035KT FM221800 30017G25KT P6SM FEW250 FM230300 VRB03KT P6SM SCT080